LLES weather

Ein Shemer Airfield
Ein Shemer, Northern District, Israel

Public forecast

Using degrees Celsius for public forecast. Weather courtesy of forecast.io.

Closest aviation weather report (METAR) to Ein Shemer Airfield

Closest report is Haifa International Airport, 22.2 nm (41.1 km) N. Retrieved 2020/03/31 10:50 UTC (11 minutes ago):

LLHA 311050Z 11013KT CAVOK 26/09 Q1006 RMK FEW140

Closest aviation forecast (TAF) to Ein Shemer Airfield

Closest forecast is Herzliya Airport, 17.9 nm (33.2 km) SSW. Retrieved 2020/03/31 06:00 UTC (5 hours ago):

TAF LLHZ 310509Z 3106/0106 14010KT CAVOK TEMPO 3106/3110 15015G25KT 7000 -TSRA FEW070CB BKN100 BECMG 3110/3112 23015KT 4000 DU BECMG 3114/3116 29010KT 8000 NSW BECMG 3118/3120 16005KT 9999 FEW018 BECMG 0101/0103 22012KT 7000 SCT018 TX29/3110Z TN15/0103Z